KMSP

Minneapolis-St Paul International / Wold-Chamberlain Airport

Minneapolis, Minnesota, USA
METAR KMSP 190553Z 01008KT 10SM OVC065 M14/M19 A3038 RMK AO2 SLP310 60001 T11441189 11128 21144 411001144 51014
Observed Flight Rules
Jan-19 @ 05:53 UTC (26 minutes ago) Visual Flight Rules
Wind Visibility Clouds
10° at 8 knots 10 miles
  • Overcast at 6,500' AGL
Temperatures Readings
Current -14°C / 7°F
Dewpoint -19°C / -2°F
Humidity 66%
Altimeter 30.38" Hg
Pressure 1031 hPa
Elevation 265
METAR KMSP 190553Z 01008KT 10SM OVC065 M14/M19 A3038 RMK AO2 SLP310 60001 T11441189 11128 21144 411001144 51014
Observed Flight Rules
Jan-19 @ 05:53 UTC
(26 minutes ago)
VFR
Wind Visibility
10° at 8 knots 10 miles
Clouds
  • Overcast at 6,500' AGL
Temperature Dewpoint
-14°C / 7°F -19°C / -2°F
Humidity Altimeter Pressure
66% 30.38" Hg 1031 hPa